sensor_id;sensor_type;location;lat;lon;timestamp;temperature;humidity
31443;SHT31;18065;55.876;9.830;2023-12-14T00:02:15;21.09;46.02
31443;SHT31;18065;55.876;9.830;2023-12-14T00:04:44;21.09;46.04
31443;SHT31;18065;55.876;9.830;2023-12-14T00:07:12;21.07;46.01
31443;SHT31;18065;55.876;9.830;2023-12-14T00:09:42;21.08;46.02
31443;SHT31;18065;55.876;9.830;2023-12-14T00:12:13;21.07;45.99
31443;SHT31;18065;55.876;9.830;2023-12-14T00:14:42;21.07;46.05
31443;SHT31;18065;55.876;9.830;2023-12-14T00:17:11;21.07;45.97
31443;SHT31;18065;55.876;9.830;2023-12-14T00:19:39;21.04;46.01
31443;SHT31;18065;55.876;9.830;2023-12-14T00:22:08;21.04;46.06
31443;SHT31;18065;55.876;9.830;2023-12-14T00:24:37;21.02;46.00
31443;SHT31;18065;55.876;9.830;2023-12-14T00:27:05;21.01;46.04
31443;SHT31;18065;55.876;9.830;2023-12-14T00:29:36;21.01;46.10
31443;SHT31;18065;55.876;9.830;2023-12-14T00:32:06;21.01;46.03
31443;SHT31;18065;55.876;9.830;2023-12-14T00:34:34;20.99;46.05
31443;SHT31;18065;55.876;9.830;2023-12-14T00:37:03;20.99;45.97
31443;SHT31;18065;55.876;9.830;2023-12-14T00:39:31;20.95;46.03
31443;SHT31;18065;55.876;9.830;2023-12-14T00:42:00;20.94;46.08
31443;SHT31;18065;55.876;9.830;2023-12-14T00:44:29;20.95;46.04
31443;SHT31;18065;55.876;9.830;2023-12-14T00:47:00;20.94;46.11
31443;SHT31;18065;55.876;9.830;2023-12-14T00:49:29;20.94;46.10
31443;SHT31;18065;55.876;9.830;2023-12-14T00:51:57;20.95;46.10
31443;SHT31;18065;55.876;9.830;2023-12-14T00:54:26;20.94;46.17
31443;SHT31;18065;55.876;9.830;2023-12-14T00:56:54;20.94;46.16
31443;SHT31;18065;55.876;9.830;2023-12-14T00:59:23;20.92;46.11
31443;SHT31;18065;55.876;9.830;2023-12-14T01:01:51;20.90;46.11
31443;SHT31;18065;55.876;9.830;2023-12-14T01:04:23;20.91;46.16
31443;SHT31;18065;55.876;9.830;2023-12-14T01:06:51;20.90;46.16
31443;SHT31;18065;55.876;9.830;2023-12-14T01:09:20;20.87;46.08
31443;SHT31;18065;55.876;9.830;2023-12-14T01:11:49;20.90;46.09
31443;SHT31;18065;55.876;9.830;2023-12-14T01:14:17;20.88;46.06
31443;SHT31;18065;55.876;9.830;2023-12-14T01:16:46;20.87;46.16
31443;SHT31;18065;55.876;9.830;2023-12-14T01:19:14;20.83;46.22
31443;SHT31;18065;55.876;9.830;2023-12-14T01:21:46;20.85;46.16
31443;SHT31;18065;55.876;9.830;2023-12-14T01:24:14;20.85;46.12
31443;SHT31;18065;55.876;9.830;2023-12-14T01:26:43;20.83;46.13
31443;SHT31;18065;55.876;9.830;2023-12-14T01:29:11;20.83;46.18
31443;SHT31;18065;55.876;9.830;2023-12-14T01:31:40;20.84;46.14
31443;SHT31;18065;55.876;9.830;2023-12-14T01:34:09;20.80;46.23
31443;SHT31;18065;55.876;9.830;2023-12-14T01:36:38;20.81;46.21
31443;SHT31;18065;55.876;9.830;2023-12-14T01:39:09;20.83;46.23
31443;SHT31;18065;55.876;9.830;2023-12-14T01:41:37;20.83;46.29
31443;SHT31;18065;55.876;9.830;2023-12-14T01:44:06;20.80;46.17
31443;SHT31;18065;55.876;9.830;2023-12-14T01:46:35;20.80;46.27
31443;SHT31;18065;55.876;9.830;2023-12-14T01:49:06;20.78;46.25
31443;SHT31;18065;55.876;9.830;2023-12-14T01:51:35;20.77;46.30
31443;SHT31;18065;55.876;9.830;2023-12-14T01:54:03;20.76;46.27
31443;SHT31;18065;55.876;9.830;2023-12-14T01:56:35;20.74;46.34
31443;SHT31;18065;55.876;9.830;2023-12-14T01:59:03;20.74;46.29
31443;SHT31;18065;55.876;9.830;2023-12-14T02:01:33;20.71;46.26
31443;SHT31;18065;55.876;9.830;2023-12-14T02:04:04;20.71;46.33
31443;SHT31;18065;55.876;9.830;2023-12-14T02:06:35;20.73;46.30
31443;SHT31;18065;55.876;9.830;2023-12-14T02:09:03;20.71;46.34
31443;SHT31;18065;55.876;9.830;2023-12-14T02:11:35;20.73;46.33
31443;SHT31;18065;55.876;9.830;2023-12-14T02:14:04;20.71;46.35
31443;SHT31;18065;55.876;9.830;2023-12-14T02:16:33;20.70;46.41
31443;SHT31;18065;55.876;9.830;2023-12-14T02:19:03;20.73;46.48
31443;SHT31;18065;55.876;9.830;2023-12-14T02:21:32;20.71;46.37
31443;SHT31;18065;55.876;9.830;2023-12-14T02:24:03;20.69;46.40
31443;SHT31;18065;55.876;9.830;2023-12-14T02:26:32;20.70;46.36
31443;SHT31;18065;55.876;9.830;2023-12-14T02:29:01;20.66;46.40
31443;SHT31;18065;55.876;9.830;2023-12-14T02:31:29;20.67;46.49
31443;SHT31;18065;55.876;9.830;2023-12-14T02:33:58;20.66;46.42
31443;SHT31;18065;55.876;9.830;2023-12-14T02:36:26;20.66;46.41
31443;SHT31;18065;55.876;9.830;2023-12-14T02:38:55;20.64;46.49
31443;SHT31;18065;55.876;9.830;2023-12-14T02:41:26;20.64;46.49
31443;SHT31;18065;55.876;9.830;2023-12-14T02:43:55;20.61;46.49
31443;SHT31;18065;55.876;9.830;2023-12-14T02:46:23;20.64;46.36
31443;SHT31;18065;55.876;9.830;2023-12-14T02:48:52;20.63;46.52
31443;SHT31;18065;55.876;9.830;2023-12-14T02:51:21;20.60;46.57
31443;SHT31;18065;55.876;9.830;2023-12-14T02:53:52;20.59;46.58
31443;SHT31;18065;55.876;9.830;2023-12-14T02:56:22;20.60;46.61
31443;SHT31;18065;55.876;9.830;2023-12-14T02:58:53;20.57;46.51
31443;SHT31;18065;55.876;9.830;2023-12-14T03:01:22;20.56;46.45
31443;SHT31;18065;55.876;9.830;2023-12-14T03:03:51;20.57;46.46
31443;SHT31;18065;55.876;9.830;2023-12-14T03:06:19;20.57;46.42
31443;SHT31;18065;55.876;9.830;2023-12-14T03:08:48;20.57;46.51
31443;SHT31;18065;55.876;9.830;2023-12-14T03:11:22;20.56;46.54
31443;SHT31;18065;55.876;9.830;2023-12-14T03:13:54;20.53;46.65
31443;SHT31;18065;55.876;9.830;2023-12-14T03:16:22;20.54;46.67
31443;SHT31;18065;55.876;9.830;2023-12-14T03:18:51;20.54;46.52
31443;SHT31;18065;55.876;9.830;2023-12-14T03:21:22;20.51;46.66
31443;SHT31;18065;55.876;9.830;2023-12-14T03:23:50;20.51;46.67
31443;SHT31;18065;55.876;9.830;2023-12-14T03:26:19;20.51;46.67
31443;SHT31;18065;55.876;9.830;2023-12-14T03:28:47;20.49;46.78
31443;SHT31;18065;55.876;9.830;2023-12-14T03:31:19;20.49;46.71
31443;SHT31;18065;55.876;9.830;2023-12-14T03:33:47;20.51;46.78
31443;SHT31;18065;55.876;9.830;2023-12-14T03:36:16;20.51;46.68
31443;SHT31;18065;55.876;9.830;2023-12-14T03:38:44;20.50;46.70
31443;SHT31;18065;55.876;9.830;2023-12-14T03:41:13;20.49;46.73
31443;SHT31;18065;55.876;9.830;2023-12-14T03:43:42;20.50;46.63
31443;SHT31;18065;55.876;9.830;2023-12-14T03:46:10;20.47;46.69
31443;SHT31;18065;55.876;9.830;2023-12-14T03:48:45;20.46;46.85
31443;SHT31;18065;55.876;9.830;2023-12-14T03:51:13;20.46;46.72
31443;SHT31;18065;55.876;9.830;2023-12-14T03:53:45;20.46;46.78
31443;SHT31;18065;55.876;9.830;2023-12-14T03:56:14;20.46;46.69
31443;SHT31;18065;55.876;9.830;2023-12-14T03:58:43;20.47;46.66
31443;SHT31;18065;55.876;9.830;2023-12-14T04:01:15;20.46;46.77
31443;SHT31;18065;55.876;9.830;2023-12-14T04:03:47;20.43;46.82
31443;SHT31;18065;55.876;9.830;2023-12-14T04:06:16;20.43;46.79
31443;SHT31;18065;55.876;9.830;2023-12-14T04:08:45;20.43;46.77
31443;SHT31;18065;55.876;9.830;2023-12-14T04:11:13;20.43;46.76
31443;SHT31;18065;55.876;9.830;2023-12-14T04:13:42;20.43;46.77
31443;SHT31;18065;55.876;9.830;2023-12-14T04:16:10;20.43;46.66
31443;SHT31;18065;55.876;9.830;2023-12-14T04:18:39;20.39;46.91
31443;SHT31;18065;55.876;9.830;2023-12-14T04:21:10;20.43;46.79
31443;SHT31;18065;55.876;9.830;2023-12-14T04:23:39;20.41;46.73
31443;SHT31;18065;55.876;9.830;2023-12-14T04:26:07;20.40;46.96
31443;SHT31;18065;55.876;9.830;2023-12-14T04:28:36;20.40;46.69
31443;SHT31;18065;55.876;9.830;2023-12-14T04:31:05;20.39;46.70
31443;SHT31;18065;55.876;9.830;2023-12-14T04:33:33;20.41;46.85
31443;SHT31;18065;55.876;9.830;2023-12-14T04:36:02;20.40;46.95
31443;SHT31;18065;55.876;9.830;2023-12-14T04:38:33;20.39;47.06
31443;SHT31;18065;55.876;9.830;2023-12-14T04:41:02;20.39;46.81
31443;SHT31;18065;55.876;9.830;2023-12-14T04:43:31;20.37;46.98
31443;SHT31;18065;55.876;9.830;2023-12-14T04:45:59;20.34;46.86
31443;SHT31;18065;55.876;9.830;2023-12-14T04:48:28;20.36;47.02
31443;SHT31;18065;55.876;9.830;2023-12-14T04:50:56;20.32;47.00
31443;SHT31;18065;55.876;9.830;2023-12-14T04:53:25;20.34;47.06
31443;SHT31;18065;55.876;9.830;2023-12-14T04:55:56;20.36;46.98
31443;SHT31;18065;55.876;9.830;2023-12-14T04:58:24;20.36;46.85
31443;SHT31;18065;55.876;9.830;2023-12-14T05:00:53;20.33;46.93
31443;SHT31;18065;55.876;9.830;2023-12-14T05:03:21;20.32;47.06
31443;SHT31;18065;55.876;9.830;2023-12-14T05:05:50;20.32;46.85
31443;SHT31;18065;55.876;9.830;2023-12-14T05:08:18;20.30;47.05
31443;SHT31;18065;55.876;9.830;2023-12-14T05:10:46;20.30;47.09
31443;SHT31;18065;55.876;9.830;2023-12-14T05:13:18;20.32;47.03
31443;SHT31;18065;55.876;9.830;2023-12-14T05:15:46;20.30;47.01
31443;SHT31;18065;55.876;9.830;2023-12-14T05:18:15;20.28;47.06
31443;SHT31;18065;55.876;9.830;2023-12-14T05:20:43;20.30;47.18
31443;SHT31;18065;55.876;9.830;2023-12-14T05:23:12;20.29;47.18
31443;SHT31;18065;55.876;9.830;2023-12-14T05:25:41;20.29;47.05
31443;SHT31;18065;55.876;9.830;2023-12-14T05:28:09;20.28;47.12
31443;SHT31;18065;55.876;9.830;2023-12-14T05:30:40;20.26;47.13
31443;SHT31;18065;55.876;9.830;2023-12-14T05:33:09;20.28;47.18
31443;SHT31;18065;55.876;9.830;2023-12-14T05:35:38;20.26;47.14
31443;SHT31;18065;55.876;9.830;2023-12-14T05:38:07;20.25;47.05
31443;SHT31;18065;55.876;9.830;2023-12-14T05:40:35;20.23;47.34
31443;SHT31;18065;55.876;9.830;2023-12-14T05:43:03;20.25;47.15
31443;SHT31;18065;55.876;9.830;2023-12-14T05:45:32;20.23;47.18
31443;SHT31;18065;55.876;9.830;2023-12-14T05:48:03;20.22;47.33
31443;SHT31;18065;55.876;9.830;2023-12-14T05:50:32;20.23;47.29
31443;SHT31;18065;55.876;9.830;2023-12-14T05:53:01;20.22;47.32
31443;SHT31;18065;55.876;9.830;2023-12-14T05:55:29;20.22;47.36
31443;SHT31;18065;55.876;9.830;2023-12-14T05:57:58;20.20;47.24
31443;SHT31;18065;55.876;9.830;2023-12-14T06:00:26;20.22;47.36
31443;SHT31;18065;55.876;9.830;2023-12-14T06:02:55;28.25;33.08
31443;SHT31;18065;55.876;9.830;2023-12-14T06:05:26;35.45;23.46
31443;SHT31;18065;55.876;9.830;2023-12-14T06:07:54;37.86;20.87
31443;SHT31;18065;55.876;9.830;2023-12-14T06:10:23;38.96;20.21
31443;SHT31;18065;55.876;9.830;2023-12-14T06:12:51;39.07;20.10
31443;SHT31;18065;55.876;9.830;2023-12-14T06:15:20;39.34;19.92
31443;SHT31;18065;55.876;9.830;2023-12-14T06:17:48;39.25;19.96
31443;SHT31;18065;55.876;9.830;2023-12-14T06:20:17;38.48;20.67
31443;SHT31;18065;55.876;9.830;2023-12-14T06:22:48;37.70;21.36
31443;SHT31;18065;55.876;9.830;2023-12-14T06:25:16;36.48;22.50
31443;SHT31;18065;55.876;9.830;2023-12-14T06:27:45;35.43;23.58
31443;SHT31;18065;55.876;9.830;2023-12-14T06:30:14;34.40;24.71
31443;SHT31;18065;55.876;9.830;2023-12-14T06:32:43;36.83;22.35
31443;SHT31;18065;55.876;9.830;2023-12-14T06:35:12;39.27;20.09
31443;SHT31;18065;55.876;9.830;2023-12-14T06:37:40;38.69;20.53
31443;SHT31;18065;55.876;9.830;2023-12-14T06:40:12;37.53;21.55
31443;SHT31;18065;55.876;9.830;2023-12-14T06:42:41;36.35;22.72
31443;SHT31;18065;55.876;9.830;2023-12-14T06:45:10;35.31;23.83
31443;SHT31;18065;55.876;9.830;2023-12-14T06:47:38;34.27;24.88
31443;SHT31;18065;55.876;9.830;2023-12-14T06:50:09;33.34;25.94
31443;SHT31;18065;55.876;9.830;2023-12-14T06:52:38;32.39;27.00
31443;SHT31;18065;55.876;9.830;2023-12-14T06:55:07;31.54;28.05
31443;SHT31;18065;55.876;9.830;2023-12-14T06:57:38;30.79;29.09
31443;SHT31;18065;55.876;9.830;2023-12-14T07:00:08;30.10;29.97
31443;SHT31;18065;55.876;9.830;2023-12-14T07:02:36;29.47;30.89
31443;SHT31;18065;55.876;9.830;2023-12-14T07:05:05;28.88;31.70
31443;SHT31;18065;55.876;9.830;2023-12-14T07:07:33;28.35;32.55
31443;SHT31;18065;55.876;9.830;2023-12-14T07:10:02;27.85;33.37
31443;SHT31;18065;55.876;9.830;2023-12-14T07:12:31;27.35;34.17
31443;SHT31;18065;55.876;9.830;2023-12-14T07:15:02;26.92;34.89
31443;SHT31;18065;55.876;9.830;2023-12-14T07:17:31;26.49;35.49
31443;SHT31;18065;55.876;9.830;2023-12-14T07:19:59;26.12;36.13
31443;SHT31;18065;55.876;9.830;2023-12-14T07:22:28;25.77;36.68
31443;SHT31;18065;55.876;9.830;2023-12-14T07:24:57;25.46;37.28
31443;SHT31;18065;55.876;9.830;2023-12-14T07:27:26;25.14;37.81
31443;SHT31;18065;55.876;9.830;2023-12-14T07:29:54;24.85;38.40
31443;SHT31;18065;55.876;9.830;2023-12-14T07:32:25;24.60;38.86
31443;SHT31;18065;55.876;9.830;2023-12-14T07:34:54;24.32;39.32
31443;SHT31;18065;55.876;9.830;2023-12-14T07:37:22;24.09;39.78
31443;SHT31;18065;55.876;9.830;2023-12-14T07:39:51;23.88;40.18
31443;SHT31;18065;55.876;9.830;2023-12-14T07:42:19;23.71;40.55
31443;SHT31;18065;55.876;9.830;2023-12-14T07:44:48;23.51;40.94
31443;SHT31;18065;55.876;9.830;2023-12-14T07:47:16;23.34;41.27
31443;SHT31;18065;55.876;9.830;2023-12-14T07:49:47;23.20;41.54
31443;SHT31;18065;55.876;9.830;2023-12-14T07:52:16;23.03;41.88
31443;SHT31;18065;55.876;9.830;2023-12-14T07:54:44;22.89;42.22
31443;SHT31;18065;55.876;9.830;2023-12-14T07:57:13;22.77;42.44
31443;SHT31;18065;55.876;9.830;2023-12-14T07:59:41;22.65;42.65
31443;SHT31;18065;55.876;9.830;2023-12-14T08:02:10;22.56;42.94
31443;SHT31;18065;55.876;9.830;2023-12-14T08:04:39;22.59;42.80
31443;SHT31;18065;55.876;9.830;2023-12-14T08:07:10;22.85;42.16
31443;SHT31;18065;55.876;9.830;2023-12-14T08:09:38;22.89;42.02
31443;SHT31;18065;55.876;9.830;2023-12-14T08:12:07;22.87;42.14
31443;SHT31;18065;55.876;9.830;2023-12-14T08:14:35;22.80;42.21
31443;SHT31;18065;55.876;9.830;2023-12-14T08:17:08;22.72;42.41
31443;SHT31;18065;55.876;9.830;2023-12-14T08:19:37;22.62;42.56
31443;SHT31;18065;55.876;9.830;2023-12-14T08:22:05;22.55;42.77
31443;SHT31;18065;55.876;9.830;2023-12-14T08:24:39;22.44;42.95
31443;SHT31;18065;55.876;9.830;2023-12-14T08:27:07;22.34;43.17
31443;SHT31;18065;55.876;9.830;2023-12-14T08:29:36;22.25;43.33
31443;SHT31;18065;55.876;9.830;2023-12-14T08:32:05;22.17;43.50
31443;SHT31;18065;55.876;9.830;2023-12-14T08:34:33;22.07;43.63
31443;SHT31;18065;55.876;9.830;2023-12-14T08:37:02;22.00;43.76
31443;SHT31;18065;55.876;9.830;2023-12-14T08:39:31;21.96;43.94
31443;SHT31;18065;55.876;9.830;2023-12-14T08:42:02;21.86;44.02
31443;SHT31;18065;55.876;9.830;2023-12-14T08:44:31;21.81;44.20
31443;SHT31;18065;55.876;9.830;2023-12-14T08:46:59;21.77;44.25
31443;SHT31;18065;55.876;9.830;2023-12-14T08:49:29;21.69;44.41
31443;SHT31;18065;55.876;9.830;2023-12-14T08:51:58;21.66;44.47
31443;SHT31;18065;55.876;9.830;2023-12-14T08:54:27;21.59;44.56
31443;SHT31;18065;55.876;9.830;2023-12-14T08:56:55;21.56;44.62
31443;SHT31;18065;55.876;9.830;2023-12-14T08:59:29;21.52;44.70
31443;SHT31;18065;55.876;9.830;2023-12-14T09:01:57;21.48;44.75
31443;SHT31;18065;55.876;9.830;2023-12-14T09:04:23;21.43;44.85
31443;SHT31;18065;55.876;9.830;2023-12-14T09:06:52;21.42;44.92
31443;SHT31;18065;55.876;9.830;2023-12-14T09:09:20;21.36;44.98
31443;SHT31;18065;55.876;9.830;2023-12-14T09:11:49;21.34;45.07
31443;SHT31;18065;55.876;9.830;2023-12-14T09:14:17;21.36;45.09
31443;SHT31;18065;55.876;9.830;2023-12-14T09:16:48;21.76;44.12
31443;SHT31;18065;55.876;9.830;2023-12-14T09:19:17;21.87;43.86
31443;SHT31;18065;55.876;9.830;2023-12-14T09:21:45;21.87;43.78
31443;SHT31;18065;55.876;9.830;2023-12-14T09:24:14;21.84;43.88
31443;SHT31;18065;55.876;9.830;2023-12-14T09:26:42;21.81;43.92
31443;SHT31;18065;55.876;9.830;2023-12-14T09:29:11;21.76;43.98
31443;SHT31;18065;55.876;9.830;2023-12-14T09:31:40;21.70;44.10
31443;SHT31;18065;55.876;9.830;2023-12-14T09:34:12;21.66;44.20
31443;SHT31;18065;55.876;9.830;2023-12-14T09:36:41;21.60;44.31
31443;SHT31;18065;55.876;9.830;2023-12-14T09:39:09;21.55;44.40
31443;SHT31;18065;55.876;9.830;2023-12-14T09:41:36;21.50;44.49
31443;SHT31;18065;55.876;9.830;2023-12-14T09:44:04;21.45;44.55
31443;SHT31;18065;55.876;9.830;2023-12-14T09:46:35;21.41;44.64
31443;SHT31;18065;55.876;9.830;2023-12-14T09:49:06;21.39;44.71
31443;SHT31;18065;55.876;9.830;2023-12-14T09:51:38;21.35;44.79
31443;SHT31;18065;55.876;9.830;2023-12-14T09:54:07;21.29;44.88
31443;SHT31;18065;55.876;9.830;2023-12-14T09:56:35;21.23;44.96
31443;SHT31;18065;55.876;9.830;2023-12-14T09:59:13;21.23;45.06
31443;SHT31;18065;55.876;9.830;2023-12-14T10:01:42;21.18;45.07
31443;SHT31;18065;55.876;9.830;2023-12-14T10:04:11;21.16;45.11
31443;SHT31;18065;55.876;9.830;2023-12-14T10:06:43;21.09;45.21
31443;SHT31;18065;55.876;9.830;2023-12-14T10:09:11;21.12;45.26
31443;SHT31;18065;55.876;9.830;2023-12-14T10:11:44;21.07;45.30
31443;SHT31;18065;55.876;9.830;2023-12-14T10:14:19;21.04;45.33
31443;SHT31;18065;55.876;9.830;2023-12-14T10:16:48;21.04;45.38
31443;SHT31;18065;55.876;9.830;2023-12-14T10:19:17;20.99;45.39
31443;SHT31;18065;55.876;9.830;2023-12-14T10:21:49;20.99;45.45
31443;SHT31;18065;55.876;9.830;2023-12-14T10:24:18;20.94;45.47
31443;SHT31;18065;55.876;9.830;2023-12-14T10:26:46;20.91;45.50
31443;SHT31;18065;55.876;9.830;2023-12-14T10:29:16;20.90;45.58
31443;SHT31;18065;55.876;9.830;2023-12-14T10:31:44;20.88;45.62
31443;SHT31;18065;55.876;9.830;2023-12-14T10:34:13;20.88;45.60
31443;SHT31;18065;55.876;9.830;2023-12-14T10:36:42;20.85;45.64
31443;SHT31;18065;55.876;9.830;2023-12-14T10:39:16;20.84;45.71
31443;SHT31;18065;55.876;9.830;2023-12-14T10:41:46;20.81;45.70
31443;SHT31;18065;55.876;9.830;2023-12-14T10:44:15;20.80;45.71
31443;SHT31;18065;55.876;9.830;2023-12-14T10:46:46;20.80;45.74
31443;SHT31;18065;55.876;9.830;2023-12-14T10:49:15;20.80;45.73
31443;SHT31;18065;55.876;9.830;2023-12-14T10:51:44;20.77;45.78
31443;SHT31;18065;55.876;9.830;2023-12-14T10:54:12;20.77;45.79
31443;SHT31;18065;55.876;9.830;2023-12-14T10:56:44;20.74;45.84
31443;SHT31;18065;55.876;9.830;2023-12-14T10:59:14;20.73;45.83
31443;SHT31;18065;55.876;9.830;2023-12-14T11:01:43;20.70;45.84
31443;SHT31;18065;55.876;9.830;2023-12-14T11:04:12;20.70;45.89
31443;SHT31;18065;55.876;9.830;2023-12-14T11:06:42;20.69;45.86
31443;SHT31;18065;55.876;9.830;2023-12-14T11:09:12;20.69;45.95
31443;SHT31;18065;55.876;9.830;2023-12-14T11:11:55;20.66;45.95
31443;SHT31;18065;55.876;9.830;2023-12-14T11:14:25;20.66;45.93
31443;SHT31;18065;55.876;9.830;2023-12-14T11:16:54;20.63;45.97
31443;SHT31;18065;55.876;9.830;2023-12-14T11:19:23;20.61;45.93
31443;SHT31;18065;55.876;9.830;2023-12-14T11:21:54;20.61;45.99
31443;SHT31;18065;55.876;9.830;2023-12-14T11:24:27;20.60;46.01
31443;SHT31;18065;55.876;9.830;2023-12-14T11:26:59;20.60;45.96
31443;SHT31;18065;55.876;9.830;2023-12-14T11:29:27;20.60;46.03
31443;SHT31;18065;55.876;9.830;2023-12-14T11:31:56;20.57;46.04
31443;SHT31;18065;55.876;9.830;2023-12-14T11:34:25;23.30;41.13
31443;SHT31;18065;55.876;9.830;2023-12-14T11:36:54;29.32;30.65
31443;SHT31;18065;55.876;9.830;2023-12-14T11:39:23;32.32;26.42
31443;SHT31;18065;55.876;9.830;2023-12-14T11:42:01;33.59;24.97
31443;SHT31;18065;55.876;9.830;2023-12-14T11:44:29;33.49;24.98
31443;SHT31;18065;55.876;9.830;2023-12-14T11:46:58;32.81;25.71
31443;SHT31;18065;55.876;9.830;2023-12-14T11:49:27;32.08;26.57
31443;SHT31;18065;55.876;9.830;2023-12-14T11:51:57;31.33;27.51
31443;SHT31;18065;55.876;9.830;2023-12-14T11:54:26;30.58;28.41
31443;SHT31;18065;55.876;9.830;2023-12-14T11:56:54;29.89;29.32
31443;SHT31;18065;55.876;9.830;2023-12-14T11:59:25;29.22;30.27
31443;SHT31;18065;55.876;9.830;2023-12-14T12:01:55;28.57;31.16
31443;SHT31;18065;55.876;9.830;2023-12-14T12:04:23;28.10;31.99
31443;SHT31;18065;55.876;9.830;2023-12-14T12:07:02;27.90;32.23
31443;SHT31;18065;55.876;9.830;2023-12-14T12:09:34;27.43;32.95
31443;SHT31;18065;55.876;9.830;2023-12-14T12:12:05;27.02;33.73
31443;SHT31;18065;55.876;9.830;2023-12-14T12:14:36;26.56;34.46
31443;SHT31;18065;55.876;9.830;2023-12-14T12:17:05;26.12;35.12
31443;SHT31;18065;55.876;9.830;2023-12-14T12:19:35;25.72;35.84
31443;SHT31;18065;55.876;9.830;2023-12-14T12:22:04;25.36;36.45
31443;SHT31;18065;55.876;9.830;2023-12-14T12:24:32;25.01;36.98
31443;SHT31;18065;55.876;9.830;2023-12-14T12:27:01;24.67;37.64
31443;SHT31;18065;55.876;9.830;2023-12-14T12:29:29;24.36;38.24
31443;SHT31;18065;55.876;9.830;2023-12-14T12:32:01;24.09;38.74
31443;SHT31;18065;55.876;9.830;2023-12-14T12:34:29;23.82;39.25
31443;SHT31;18065;55.876;9.830;2023-12-14T12:36:58;23.59;39.73
31443;SHT31;18065;55.876;9.830;2023-12-14T12:39:26;23.38;40.19
31443;SHT31;18065;55.876;9.830;2023-12-14T12:41:54;23.17;40.58
31443;SHT31;18065;55.876;9.830;2023-12-14T12:44:26;22.97;40.99
31443;SHT31;18065;55.876;9.830;2023-12-14T12:46:54;22.79;41.39
31443;SHT31;18065;55.876;9.830;2023-12-14T12:49:26;22.64;41.70
31443;SHT31;18065;55.876;9.830;2023-12-14T12:51:55;22.49;42.00
31443;SHT31;18065;55.876;9.830;2023-12-14T12:54:24;22.38;42.30
31443;SHT31;18065;55.876;9.830;2023-12-14T12:56:52;22.24;42.53
31443;SHT31;18065;55.876;9.830;2023-12-14T12:59:21;22.13;42.87
31443;SHT31;18065;55.876;9.830;2023-12-14T13:01:49;22.03;43.06
31443;SHT31;18065;55.876;9.830;2023-12-14T13:04:18;21.90;43.28
31443;SHT31;18065;55.876;9.830;2023-12-14T13:06:49;21.80;43.49
31443;SHT31;18065;55.876;9.830;2023-12-14T13:09:18;21.73;43.60
31443;SHT31;18065;55.876;9.830;2023-12-14T13:11:47;21.66;43.78
31443;SHT31;18065;55.876;9.830;2023-12-14T13:14:16;21.59;43.96
31443;SHT31;18065;55.876;9.830;2023-12-14T13:16:44;21.52;44.05
31443;SHT31;18065;55.876;9.830;2023-12-14T13:19:13;21.46;44.19
31443;SHT31;18065;55.876;9.830;2023-12-14T13:21:41;21.41;44.30
31443;SHT31;18065;55.876;9.830;2023-12-14T13:24:13;21.34;44.46
31443;SHT31;18065;55.876;9.830;2023-12-14T13:26:41;21.29;44.53
31443;SHT31;18065;55.876;9.830;2023-12-14T13:29:09;21.27;44.62
31443;SHT31;18065;55.876;9.830;2023-12-14T13:31:38;21.22;44.69
31443;SHT31;18065;55.876;9.830;2023-12-14T13:34:06;21.16;44.77
31443;SHT31;18065;55.876;9.830;2023-12-14T13:36:35;21.14;44.83
31443;SHT31;18065;55.876;9.830;2023-12-14T13:39:03;21.09;44.88
31443;SHT31;18065;55.876;9.830;2023-12-14T13:41:35;21.07;44.98
31443;SHT31;18065;55.876;9.830;2023-12-14T13:44:03;21.04;45.05
31443;SHT31;18065;55.876;9.830;2023-12-14T13:46:32;20.99;45.11
31443;SHT31;18065;55.876;9.830;2023-12-14T13:49:00;20.98;45.15
31443;SHT31;18065;55.876;9.830;2023-12-14T13:51:29;21.38;44.35
31443;SHT31;18065;55.876;9.830;2023-12-14T13:53:57;21.53;43.93
31443;SHT31;18065;55.876;9.830;2023-12-14T13:56:26;21.58;43.82
31443;SHT31;18065;55.876;9.830;2023-12-14T13:58:57;21.55;43.86
31443;SHT31;18065;55.876;9.830;2023-12-14T14:01:25;21.53;43.93
31443;SHT31;18065;55.876;9.830;2023-12-14T14:03:54;21.49;44.00
31443;SHT31;18065;55.876;9.830;2023-12-14T14:06:22;21.45;44.11
31443;SHT31;18065;55.876;9.830;2023-12-14T14:08:51;21.39;44.18
31443;SHT31;18065;55.876;9.830;2023-12-14T14:11:20;21.31;44.31
31443;SHT31;18065;55.876;9.830;2023-12-14T14:13:48;21.28;44.34
31443;SHT31;18065;55.876;9.830;2023-12-14T14:16:19;21.23;44.46
31443;SHT31;18065;55.876;9.830;2023-12-14T14:18:48;21.19;44.58
31443;SHT31;18065;55.876;9.830;2023-12-14T14:21:16;21.16;44.58
31443;SHT31;18065;55.876;9.830;2023-12-14T14:23:45;21.09;44.71
31443;SHT31;18065;55.876;9.830;2023-12-14T14:26:13;21.05;44.75
31443;SHT31;18065;55.876;9.830;2023-12-14T14:28:42;21.04;44.84
31443;SHT31;18065;55.876;9.830;2023-12-14T14:31:10;21.02;44.93
31443;SHT31;18065;55.876;9.830;2023-12-14T14:33:42;20.97;44.97
31443;SHT31;18065;55.876;9.830;2023-12-14T14:36:12;20.94;45.04
31443;SHT31;18065;55.876;9.830;2023-12-14T14:38:40;20.91;45.09
31443;SHT31;18065;55.876;9.830;2023-12-14T14:41:09;20.85;45.15
31443;SHT31;18065;55.876;9.830;2023-12-14T14:43:38;20.85;45.17
31443;SHT31;18065;55.876;9.830;2023-12-14T14:46:08;20.81;45.26
31443;SHT31;18065;55.876;9.830;2023-12-14T14:48:36;20.78;45.31
31443;SHT31;18065;55.876;9.830;2023-12-14T14:51:08;20.77;45.31
31443;SHT31;18065;55.876;9.830;2023-12-14T14:53:36;20.76;45.39
31443;SHT31;18065;55.876;9.830;2023-12-14T14:56:08;20.73;45.47
31443;SHT31;18065;55.876;9.830;2023-12-14T14:58:36;20.69;45.51
31443;SHT31;18065;55.876;9.830;2023-12-14T15:01:05;20.69;45.52
31443;SHT31;18065;55.876;9.830;2023-12-14T15:03:33;20.64;45.55
31443;SHT31;18065;55.876;9.830;2023-12-14T15:06:02;20.66;45.56
31443;SHT31;18065;55.876;9.830;2023-12-14T15:08:33;20.61;45.59
31443;SHT31;18065;55.876;9.830;2023-12-14T15:11:02;20.60;45.64
31443;SHT31;18065;55.876;9.830;2023-12-14T15:13:33;20.59;45.66
31443;SHT31;18065;55.876;9.830;2023-12-14T15:16:01;20.57;45.70
31443;SHT31;18065;55.876;9.830;2023-12-14T15:18:30;20.57;45.72
31443;SHT31;18065;55.876;9.830;2023-12-14T15:20:59;20.53;45.77
31443;SHT31;18065;55.876;9.830;2023-12-14T15:23:28;20.54;45.79
31443;SHT31;18065;55.876;9.830;2023-12-14T15:25:59;20.51;45.75
31443;SHT31;18065;55.876;9.830;2023-12-14T15:28:28;20.49;45.83
31443;SHT31;18065;55.876;9.830;2023-12-14T15:30:56;20.47;45.81
31443;SHT31;18065;55.876;9.830;2023-12-14T15:33:25;20.46;45.84
31443;SHT31;18065;55.876;9.830;2023-12-14T15:35:53;24.23;39.10
31443;SHT31;18065;55.876;9.830;2023-12-14T15:38:22;31.24;27.81
31443;SHT31;18065;55.876;9.830;2023-12-14T15:40:50;34.67;23.77
31443;SHT31;18065;55.876;9.830;2023-12-14T15:43:21;36.14;22.10